Nearby METAR Reports

 

KALB - Albany, New York, USA
Distance from station: E 47mi, 75km
Updated: Fri, 18-Jun-2021 9:51am EDT
Mostly cloudy
Mostly cloudy
 Wind from SSE
Wind: SSE 7 mph , 11 km/h
Temperature: 64°F , 18°C
Dew Point: 52°F , 11°C
Humidity: 64%
Barometer: 29.97 inHg , 1014.9 hPa
Clouds: Mostly cloudy
Visibility: 10 miles , 16 km
Cloud details: Mostly cloudy 25000 ft
2021/06/18 13:51 KALB 181351Z 16006KT 10SM BKN250 18/11 A2997 RMK AO2 SLP147 T01780106
KSLK - Saranac Lake, New York, USA
Distance from station: N 110mi, 177km
Updated: Fri, 18-Jun-2021 9:51am EDT
Clear
Clear
 Wind from SW
Wind: SW 14 mph , 22 km/h
Temperature: 68°F , 20°C
Dew Point: 45°F , 7°C
Humidity: 43%
Barometer: 29.92 inHg , 1013.2 hPa
Clouds: Clear
Visibility: 10 miles , 16 km
2021/06/18 13:51 KSLK 181351Z AUTO 22012KT 10SM CLR 20/07 A2992 RMK AO2 SLP129 T02000067
 
KSYR - Syracuse, New York, USA
Distance from station: W 73mi, 117km
Updated: Fri, 18-Jun-2021 9:54am EDT
Mostly cloudy
Mostly cloudy
 Wind from SSW
Wind: SSW 10 mph , 17 km/h
Temperature: 77°F , 25°C
Dew Point: 52°F , 11°C
Humidity: 42%
Barometer: 29.90 inHg , 1012.5 hPa
Clouds: Mostly cloudy
Visibility: 10 miles , 16 km
Cloud details: Partly cloudy 7000 ft
Partly cloudy 14000 ft
Mostly cloudy 24000 ft
2021/06/18 13:54 KSYR 181354Z 21009KT 10SM SCT070 SCT140 BKN240 25/11 A2990 RMK AO2 SLP119 T02500111
KBGM - Binghamton, New York, USA
Distance from station: SW 78mi, 126km
Updated: Fri, 18-Jun-2021 9:53am EDT
Clear
Clear
 Wind from WSW
Wind: WSW 9 mph , 15 km/h
Temperature: 66°F , 19°C
Dew Point: 48°F , 9°C
Humidity: 52%
Barometer: 29.99 inHg , 1015.6 hPa
Clouds: Clear
Visibility: 10 miles , 16 km
2021/06/18 13:53 KBGM 181353Z 24008KT 10SM CLR 19/09 A2999 RMK AO2 SLP150 T01890094
 
KRME - Rome, New York, USA
Distance from station: WNW 43mi, 69km
Updated: Fri, 18-Jun-2021 9:53am EDT
Clear
Clear
 Wind from SE
Wind: SE 6 mph , 9 km/h
Temperature: 70°F , 21°C
Dew Point: 52°F , 11°C
Humidity: 53%
Barometer: 29.94 inHg , 1013.9 hPa
Clouds: Clear
Visibility: 10 miles , 16 km
2021/06/18 13:53 KRME 181353Z 13005KT 10SM CLR 21/11 A2994 RMK AO2 SLP136 T02110111
KJFK - New York, New York, USA
Distance from station: SSE 159mi, 256km
Updated: Fri, 18-Jun-2021 9:51am EDT
Partly cloudy
Partly cloudy
 Wind from WSW
Wind: WSW 13 mph , 20 km/h
Temperature: 73°F , 23°C
Dew Point: 54°F , 12°C
Humidity: 50%
Barometer: 30.05 inHg , 1017.6 hPa
Clouds: Partly cloudy
Visibility: 10 miles , 16 km
Cloud details: Partly cloudy 25000 ft
2021/06/18 13:51 KJFK 181351Z 24011KT 10SM SCT250 23/12 A3005 RMK AO2 SLP174 T02330117
 
KROC - Rochester, New York, USA
Distance from station: W 150mi, 242km
Updated: Fri, 18-Jun-2021 9:54am EDT
Mostly cloudy
Mostly cloudy
 Wind from SW
Wind: SW 13 mph , 20 km/h
Temperature: 73°F , 23°C
Dew Point: 54°F , 12°C
Humidity: 50%
Barometer: 29.89 inHg , 1012.2 hPa
Clouds: Mostly cloudy
Visibility: 10 miles , 16 km
Cloud details: Few Clouds 8000 ft
Partly cloudy 16000 ft
Mostly cloudy 25000 ft
2021/06/18 13:54 KROC 181354Z 23011KT 10SM FEW080 SCT160 BKN250 23/12 A2989 RMK AO2 SLP121 T02330122 $
KART - Watertown, New York, USA
Distance from station: NNW 103mi, 166km
Updated: Fri, 18-Jun-2021 9:56am EDT
Clear
Clear
 Wind from S
Wind: S 10 mph , 17 km/h
Temperature: 72°F , 22°C
Dew Point: 52°F , 11°C
Humidity: 50%
Barometer: 29.85 inHg , 1010.8 hPa
Clouds: Clear
Visibility: 10 miles , 16 km
2021/06/18 13:56 KART 181356Z AUTO 19009KT 10SM CLR 22/11 A2985 RMK AO2 SLP105 T02220106 $
 
KELM - Elmira-Corning, New York, USA
Distance from station: SSW 121mi, 195km
Updated: Fri, 18-Jun-2021 9:53am EDT
Clear
Clear
 Wind from SW
Wind: SW 5 mph , 7 km/h
Temperature: 70°F , 21°C
Dew Point: 54°F , 12°C
Humidity: 57%
Barometer: 29.96 inHg , 1014.6 hPa
Clouds: Clear
Visibility: 10 miles , 16 km
2021/06/18 13:53 KELM 181353Z AUTO 23004KT 10SM CLR 21/12 A2996 RMK AO2 SLP142 T02060117
KJHW - Jamestown, New York, USA
Distance from station: SW 238mi, 383km
Updated: Fri, 18-Jun-2021 9:56am EDT
Clear
Clear
 Wind from SSW
Wind: SSW 9 mph , 15 km/h
Temperature: 68°F , 20°C
Dew Point: 55°F , 13°C
Humidity: 64%
Barometer: 29.97 inHg , 1014.9 hPa
Clouds: Clear
Visibility: 10 miles , 16 km
2021/06/18 13:56 KJHW 181356Z AUTO 20008KT 10SM CLR 20/13 A2997 RMK AO2 SLP148 T02000128
 
KMSS - Massena, New York, USA
Distance from station: N 141mi, 232km
Updated: Fri, 18-Jun-2021 9:53am EDT
Partly cloudy
Partly cloudy
 Wind from SSW
Wind: SSW 13 mph , 20 km/h
Temperature: 72°F , 22°C
Dew Point: 48°F , 9°C
Humidity: 44%
Barometer: 29.86 inHg , 1011.2 hPa
Clouds: Partly cloudy
Visibility: 10 miles , 16 km
Cloud details: Partly cloudy 11000 ft
2021/06/18 13:53 KMSS 181353Z AUTO 20011KT 10SM SCT110 22/09 A2986 RMK AO2 SLP109 T02220089
KBUF - Buffalo, New York, USA
Distance from station: W 204mi, 328km
Updated: Fri, 18-Jun-2021 9:54am EDT
Mostly cloudy
Mostly cloudy
 Wind from WSW
Wind: WSW 12 mph , 19 km/h
Temperature: 70°F , 21°C
Dew Point: 55°F , 13°C
Humidity: 60%
Barometer: 29.90 inHg , 1012.5 hPa
Clouds: Mostly cloudy
Visibility: 10 miles , 16 km
Cloud details: Few Clouds 5000 ft
Few Clouds 10000 ft
Mostly cloudy 14000 ft
Mostly cloudy 23000 ft
Mostly cloudy 28000 ft
2021/06/18 13:54 KBUF 181354Z 24010KT 10SM FEW050 FEW100 BKN140 BKN230 BKN280 21/13 A2990 RMK AO2 RAE35 SLP123 SHRA DSNT SW-NW-NE P0000 T02110128 $